Time;durP1;ratioP1;P1;durP2;ratioP2;P2;SDS_P1;SDS_P2;PMS_P1;PMS_P2;Temp;Humidity;BMP_temperature;BMP_pressure;BME280_temperature;BME280_humidity;BME280_pressure;Samples;Min_cycle;Max_cycle;Signal;HPM_P1;HPM_P2
2023/12/20 00:02:26;;;;;;;6.80;4.20;;;;;;;5.20;100.00;100440.17;109360;1252;73410;-64
2023/12/20 00:04:54;;;;;;;6.80;3.90;;;;;;;5.19;100.00;100441.27;109361;1254;67018;-64
2023/12/20 00:07:22;;;;;;;6.90;4.70;;;;;;;5.19;100.00;100441.48;109419;1253;73214;-64
2023/12/20 00:09:49;;;;;;;9.60;4.80;;;;;;;5.21;100.00;100440.55;109421;1254;60457;-64
2023/12/20 00:12:17;;;;;;;7.50;4.70;;;;;;;5.23;100.00;100438.48;109357;1252;60233;-64
2023/12/20 00:14:44;;;;;;;8.50;4.80;;;;;;;5.24;100.00;100436.35;109343;1252;73769;-64
2023/12/20 00:17:12;;;;;;;6.50;4.60;;;;;;;5.25;100.00;100436.55;109302;1252;66943;-65
2023/12/20 00:19:40;;;;;;;8.20;5.90;;;;;;;5.24;100.00;100434.12;109337;1253;72685;-64
2023/12/20 00:22:08;;;;;;;8.70;6.00;;;;;;;5.21;100.00;100432.67;109353;1253;61772;-64
2023/12/20 00:24:35;;;;;;;9.10;5.60;;;;;;;5.23;100.00;100429.02;109331;1253;59338;-64
2023/12/20 00:27:03;;;;;;;10.40;5.60;;;;;;;5.21;100.00;100424.07;109331;1252;74740;-65
2023/12/20 00:29:31;;;;;;;8.00;5.10;;;;;;;5.21;100.00;100427.66;109380;1253;67806;-64
2023/12/20 00:31:58;;;;;;;9.50;5.70;;;;;;;5.22;100.00;100418.11;109386;1252;72754;-64
2023/12/20 00:34:26;;;;;;;7.80;5.50;;;;;;;5.23;100.00;100420.61;109368;1254;60428;-65
2023/12/20 00:36:54;;;;;;;10.50;6.40;;;;;;;5.23;100.00;100409.21;109344;1253;60138;-65
2023/12/20 00:39:22;;;;;;;8.50;5.80;;;;;;;5.23;100.00;100411.09;109316;1253;74860;-64
2023/12/20 00:41:50;;;;;;;9.00;6.70;;;;;;;5.22;100.00;100407.04;109377;1254;67067;-64
2023/12/20 00:44:17;;;;;;;10.20;6.30;;;;;;;5.21;100.00;100404.69;109314;1253;72874;-64
2023/12/20 00:46:45;;;;;;;9.00;6.00;;;;;;;5.22;100.00;100408.45;109302;1253;60399;-63
2023/12/20 00:49:12;;;;;;;10.20;6.80;;;;;;;5.18;100.00;100406.36;109300;1252;60123;-64
2023/12/20 00:51:40;;;;;;;9.70;6.50;;;;;;;5.16;100.00;100401.26;109398;1254;74748;-63
2023/12/20 00:54:08;;;;;;;10.10;6.40;;;;;;;5.17;100.00;100401.86;109341;1253;66985;-64
2023/12/20 00:56:35;;;;;;;10.30;6.40;;;;;;;5.17;100.00;100404.58;109306;1252;71163;-63
2023/12/20 00:59:03;;;;;;;10.50;7.10;;;;;;;5.17;100.00;100398.38;109274;1253;59837;-64
2023/12/20 01:01:32;;;;;;;14.90;7.60;;;;;;;5.17;100.00;100398.89;109325;1252;59018;-63
2023/12/20 01:04:00;;;;;;;9.00;6.60;;;;;;;5.15;100.00;100399.61;109322;1253;74866;-64
2023/12/20 01:06:28;;;;;;;10.60;7.20;;;;;;;5.16;100.00;100399.21;109279;1253;66212;-63
2023/12/20 01:08:56;;;;;;;11.90;7.20;;;;;;;5.18;100.00;100391.73;109278;1253;71362;-65
2023/12/20 01:11:24;;;;;;;10.20;7.80;;;;;;;5.20;100.00;100385.33;109340;1253;59795;-64
2023/12/20 01:13:51;;;;;;;12.90;7.70;;;;;;;5.20;100.00;100386.23;109391;1252;59209;-63
2023/12/20 01:16:19;;;;;;;11.80;7.80;;;;;;;5.21;100.00;100376.66;109314;1252;73462;-63
2023/12/20 01:18:46;;;;;;;11.20;7.40;;;;;;;5.21;100.00;100370.29;109347;1253;65574;-64
2023/12/20 01:21:14;;;;;;;10.90;7.80;;;;;;;5.20;100.00;100366.41;109376;1252;72375;-65
2023/12/20 01:23:41;;;;;;;11.20;7.80;;;;;;;5.20;100.00;100369.48;109311;1252;61963;-63
2023/12/20 01:26:09;;;;;;;13.20;8.10;;;;;;;5.21;100.00;100365.30;109353;1253;60129;-64
2023/12/20 01:28:37;;;;;;;12.90;7.80;;;;;;;5.21;100.00;100367.02;109421;1252;74763;-64
2023/12/20 01:31:05;;;;;;;10.20;7.10;;;;;;;5.22;100.00;100368.84;109334;1253;65849;-65
2023/12/20 01:33:32;;;;;;;11.00;7.60;;;;;;;5.22;100.00;100367.40;109341;1252;72471;-63
2023/12/20 01:36:00;;;;;;;10.00;7.70;;;;;;;5.24;100.00;100371.42;109352;1253;59685;-64
2023/12/20 01:38:28;;;;;;;11.30;7.40;;;;;;;5.24;100.00;100375.98;109313;1253;59328;-63
2023/12/20 01:40:55;;;;;;;10.50;7.20;;;;;;;5.24;100.00;100376.91;109317;1252;74721;-64
2023/12/20 01:43:23;;;;;;;9.50;7.30;;;;;;;5.23;100.00;100377.52;109431;1251;67005;-64
2023/12/20 01:45:55;;;;;;;10.30;7.00;;;;;;;5.22;100.00;100376.90;109383;1253;73302;-63
2023/12/20 01:48:23;;;;;;;11.30;7.00;;;;;;;5.24;100.00;100380.02;109344;1253;59627;-64
2023/12/20 01:50:51;;;;;;;10.30;7.50;;;;;;;5.25;100.00;100378.38;109236;1253;60013;-65
2023/12/20 01:53:20;;;;;;;10.20;7.10;;;;;;;5.26;100.00;100375.80;109312;1253;74736;-63
2023/12/20 01:55:48;;;;;;;10.80;6.90;;;;;;;5.27;100.00;100381.10;109347;1253;67079;-63
2023/12/20 01:58:16;;;;;;;10.10;7.00;;;;;;;5.27;100.00;100377.47;109335;1253;72736;-64
2023/12/20 02:00:43;;;;;;;11.20;7.90;;;;;;;5.27;100.00;100374.48;109320;1253;60488;-63
2023/12/20 02:03:11;;;;;;;10.80;7.40;;;;;;;5.28;100.00;100372.17;109275;1252;60075;-64
2023/12/20 02:05:39;;;;;;;9.70;6.80;;;;;;;5.26;100.00;100374.44;109274;1252;73497;-63
2023/12/20 02:08:06;;;;;;;9.30;6.50;;;;;;;5.27;100.00;100370.55;109227;1253;65511;-63
2023/12/20 02:10:34;;;;;;;10.20;7.00;;;;;;;5.26;100.00;100368.94;109337;1254;72521;-63
2023/12/20 02:13:02;;;;;;;12.00;7.90;;;;;;;5.25;100.00;100369.91;109359;1251;60065;-64
2023/12/20 02:15:29;;;;;;;11.10;8.30;;;;;;;5.26;100.00;100371.34;109365;1252;60920;-64
2023/12/20 02:17:57;;;;;;;11.90;7.30;;;;;;;5.26;100.00;100369.48;109339;1252;74620;-63
2023/12/20 02:20:25;;;;;;;11.50;7.40;;;;;;;5.24;100.00;100371.59;109371;1253;65823;-63
2023/12/20 02:22:52;;;;;;;10.30;7.20;;;;;;;5.22;100.00;100373.05;109307;1253;72740;-64
2023/12/20 02:25:20;;;;;;;10.70;7.90;;;;;;;5.24;100.00;100365.35;109333;1253;60407;-63
2023/12/20 02:27:48;;;;;;;11.20;7.30;;;;;;;5.24;100.00;100373.59;109347;1252;59804;-62
2023/12/20 02:30:16;;;;;;;10.90;7.40;;;;;;;5.24;100.00;100370.04;109232;1252;74677;-63
2023/12/20 02:32:43;;;;;;;10.40;6.70;;;;;;;5.24;100.00;100370.67;109343;1253;66947;-63
2023/12/20 02:35:11;;;;;;;10.40;7.30;;;;;;;5.23;100.00;100368.19;109244;1253;71097;-63
2023/12/20 02:37:39;;;;;;;10.10;7.30;;;;;;;5.22;100.00;100370.69;109300;1253;61110;-62
2023/12/20 02:40:07;;;;;;;10.30;7.40;;;;;;;5.20;100.00;100366.56;109292;1253;60028;-63
2023/12/20 02:42:34;;;;;;;11.60;8.50;;;;;;;5.19;100.00;100366.14;109324;1253;73765;-63
2023/12/20 02:45:02;;;;;;;10.50;7.60;;;;;;;5.20;100.00;100365.73;109298;1252;66697;-63
2023/12/20 02:47:30;;;;;;;10.70;7.60;;;;;;;5.20;100.00;100362.77;109332;1253;71435;-62
2023/12/20 02:49:57;;;;;;;12.00;8.30;;;;;;;5.21;100.00;100361.80;109317;1252;58950;-62
2023/12/20 02:52:25;;;;;;;11.50;8.40;;;;;;;5.23;100.00;100361.33;109360;1252;58855;-62
2023/12/20 02:54:53;;;;;;;12.30;8.30;;;;;;;5.23;100.00;100365.27;109348;1253;74706;-62
2023/12/20 02:57:21;;;;;;;11.80;7.60;;;;;;;5.24;100.00;100363.29;109297;1253;65634;-63
2023/12/20 02:59:48;;;;;;;12.10;8.20;;;;;;;5.24;100.00;100356.44;109341;1253;71461;-62
2023/12/20 03:02:16;;;;;;;12.90;8.80;;;;;;;5.24;100.00;100359.44;109339;1253;59592;-62
2023/12/20 03:04:43;;;;;;;11.40;9.20;;;;;;;5.24;100.00;100361.19;109309;1253;59583;-62
2023/12/20 03:07:12;;;;;;;11.20;8.30;;;;;;;5.25;100.00;100358.65;109404;1251;73525;-63
2023/12/20 03:09:39;;;;;;;10.70;7.90;;;;;;;5.27;100.00;100359.21;109325;1252;66920;-62
2023/12/20 03:12:27;;;;;;;12.40;8.30;;;;;;;5.25;100.00;100360.64;109320;1253;71586;-62
2023/12/20 03:14:54;;;;;;;11.30;8.40;;;;;;;5.23;100.00;100364.58;109330;1252;60991;-62
2023/12/20 03:17:22;;;;;;;11.00;8.50;;;;;;;5.23;100.00;100354.05;109229;1253;60198;-61
2023/12/20 03:19:49;;;;;;;11.70;8.30;;;;;;;5.24;100.00;100361.35;109346;1252;74711;-62
2023/12/20 03:22:17;;;;;;;10.30;7.20;;;;;;;5.23;100.00;100364.38;109325;1253;66533;-62
2023/12/20 03:24:45;;;;;;;10.90;7.80;;;;;;;5.24;100.00;100365.03;109345;1252;72727;-62
2023/12/20 03:27:12;;;;;;;11.80;8.20;;;;;;;5.24;100.00;100364.31;109255;1252;60469;-62
2023/12/20 03:29:40;;;;;;;12.10;8.20;;;;;;;5.23;100.00;100364.08;109297;1253;58913;-62
2023/12/20 03:32:08;;;;;;;12.30;8.10;;;;;;;5.23;100.00;100370.06;109349;1252;74692;-62
2023/12/20 03:34:36;;;;;;;11.00;8.60;;;;;;;5.24;100.00;100368.48;109433;1251;65037;-62
2023/12/20 03:37:04;;;;;;;10.80;7.90;;;;;;;5.24;100.00;100366.03;109316;1253;72648;-63
2023/12/20 03:39:31;;;;;;;11.70;8.90;;;;;;;5.25;100.00;100369.23;109306;1253;59694;-62
2023/12/20 03:41:59;;;;;;;11.80;7.90;;;;;;;5.24;100.00;100376.88;109376;1253;60134;-62
2023/12/20 03:44:27;;;;;;;10.20;7.90;;;;;;;5.24;100.00;100390.36;109348;1253;74727;-62
2023/12/20 03:46:54;;;;;;;10.10;7.60;;;;;;;5.26;100.00;100394.30;109336;1253;66126;-63
2023/12/20 03:49:22;;;;;;;12.10;8.40;;;;;;;5.27;100.00;100394.16;109273;1253;72828;-62
2023/12/20 03:51:49;;;;;;;11.10;8.20;;;;;;;5.27;100.00;100395.68;109290;1255;61782;-61
2023/12/20 03:54:17;;;;;;;11.50;8.10;;;;;;;5.26;100.00;100383.22;109330;1253;60029;-62
2023/12/20 03:56:45;;;;;;;11.00;7.70;;;;;;;5.26;100.00;100380.13;109342;1252;74740;-62
2023/12/20 03:59:12;;;;;;;9.70;7.40;;;;;;;5.26;100.00;100379.41;109236;1253;66952;-64
2023/12/20 04:01:44;;;;;;;10.30;7.10;;;;;;;5.27;100.00;100376.81;109303;1253;71499;-62
2023/12/20 04:04:12;;;;;;;10.70;8.00;;;;;;;5.27;100.00;100372.16;109286;1253;60597;-62
2023/12/20 04:06:40;;;;;;;9.70;6.90;;;;;;;5.26;100.00;100368.05;109335;1253;59453;-62
2023/12/20 04:09:11;;;;;;;9.70;6.90;;;;;;;5.25;100.00;100358.67;109280;1252;73334;-62
2023/12/20 04:11:39;;;;;;;12.00;7.90;;;;;;;5.24;100.00;100360.05;109312;1253;65925;-62
2023/12/20 04:14:07;;;;;;;10.90;7.20;;;;;;;5.25;100.00;100362.61;109305;1253;72768;-62
2023/12/20 04:16:35;;;;;;;11.40;7.60;;;;;;;5.25;100.00;100368.48;109304;1253;61707;-62
2023/12/20 04:19:02;;;;;;;13.10;8.60;;;;;;;5.27;100.00;100373.01;109349;1253;60110;-63
2023/12/20 04:21:30;;;;;;;11.10;7.60;;;;;;;5.29;100.00;100376.20;109331;1252;75204;-61
2023/12/20 04:23:58;;;;;;;13.00;7.50;;;;;;;5.31;100.00;100378.26;109397;1253;66311;-61
2023/12/20 04:26:25;;;;;;;10.60;7.80;;;;;;;5.31;100.00;100375.54;109332;1253;71447;-61
2023/12/20 04:28:53;;;;;;;12.30;9.00;;;;;;;5.27;100.00;100382.44;109317;1253;60605;-61
2023/12/20 04:31:21;;;;;;;11.60;8.10;;;;;;;5.24;100.00;100386.86;109289;1252;60089;-61
2023/12/20 04:33:49;;;;;;;11.50;7.60;;;;;;;5.25;100.00;100375.38;109334;1252;74518;-61
2023/12/20 04:36:17;;;;;;;11.70;7.60;;;;;;;5.24;100.00;100372.04;109384;1252;66207;-61
2023/12/20 04:38:44;;;;;;;10.90;7.90;;;;;;;5.24;100.00;100369.68;109357;1253;72766;-61
2023/12/20 04:41:15;;;;;;;11.10;7.40;;;;;;;5.22;100.00;100365.16;109313;1253;59799;-61
2023/12/20 04:43:43;;;;;;;12.50;8.00;;;;;;;5.22;100.00;100369.69;109321;1252;60089;-62
2023/12/20 04:46:11;;;;;;;10.50;7.60;;;;;;;5.19;100.00;100377.75;109372;1252;74840;-61
2023/12/20 04:48:38;;;;;;;12.00;7.70;;;;;;;5.20;100.00;100379.52;109336;1253;65105;-61
2023/12/20 04:51:06;;;;;;;11.30;7.70;;;;;;;5.20;100.00;100374.19;109289;1253;72867;-61
2023/12/20 04:53:34;;;;;;;11.30;8.10;;;;;;;5.20;100.00;100370.89;109247;1252;61741;-62
2023/12/20 04:56:01;;;;;;;13.20;9.40;;;;;;;5.21;100.00;100374.52;109354;1253;58874;-61
2023/12/20 04:58:29;;;;;;;15.10;9.00;;;;;;;5.24;100.00;100380.73;109371;1253;73383;-61
2023/12/20 05:00:56;;;;;;;13.20;9.70;;;;;;;5.22;100.00;100380.48;109313;1255;66352;-61
2023/12/20 05:03:24;;;;;;;13.40;9.50;;;;;;;5.20;100.00;100379.98;109289;1252;71382;-62
2023/12/20 05:05:52;;;;;;;14.90;9.40;;;;;;;5.20;100.00;100376.25;109300;1253;61388;-61
2023/12/20 05:08:20;;;;;;;13.20;9.40;;;;;;;5.20;100.00;100377.97;109387;1253;58912;-61
2023/12/20 05:10:47;;;;;;;11.50;7.90;;;;;;;5.24;100.00;100379.14;109381;1253;74729;-61
2023/12/20 05:13:15;;;;;;;14.10;10.20;;;;;;;5.24;100.00;100382.22;109340;1253;67483;-61
2023/12/20 05:15:43;;;;;;;12.90;9.30;;;;;;;5.23;100.00;100388.87;109352;1253;71491;-61
2023/12/20 05:18:11;;;;;;;13.90;9.70;;;;;;;5.23;100.00;100395.55;109349;1253;61758;-61
2023/12/20 05:20:39;;;;;;;13.20;9.10;;;;;;;5.25;100.00;100395.27;109355;1253;59348;-61
2023/12/20 05:23:06;;;;;;;15.20;10.30;;;;;;;5.24;100.00;100392.19;109338;1254;73613;-62
2023/12/20 05:25:34;;;;;;;13.90;9.60;;;;;;;5.23;100.00;100390.05;109350;1253;67058;-61
2023/12/20 05:28:02;;;;;;;12.80;8.90;;;;;;;5.29;100.00;100388.13;109337;1252;70860;-61
2023/12/20 05:30:29;;;;;;;14.20;9.30;;;;;;;5.29;100.00;100390.50;109299;1253;60943;-61
2023/12/20 05:32:57;;;;;;;13.30;9.90;;;;;;;5.31;100.00;100392.44;109404;1252;59460;-61
2023/12/20 05:35:25;;;;;;;15.00;10.00;;;;;;;5.33;100.00;100400.69;109259;1252;73454;-62
2023/12/20 05:37:52;;;;;;;14.30;10.20;;;;;;;5.36;100.00;100404.69;109315;1253;67079;-61
2023/12/20 05:40:20;;;;;;;14.10;9.90;;;;;;;5.35;100.00;100405.47;109354;1253;72766;-61
2023/12/20 05:42:48;;;;;;;14.70;9.70;;;;;;;5.33;100.00;100412.36;109321;1252;60750;-61
2023/12/20 05:45:15;;;;;;;15.40;11.20;;;;;;;5.32;100.00;100403.69;109341;1252;59235;-62
2023/12/20 05:47:43;;;;;;;13.30;9.20;;;;;;;5.35;100.00;100405.65;109232;1253;75221;-61
2023/12/20 05:50:11;;;;;;;14.20;10.30;;;;;;;5.38;100.00;100400.33;109415;1252;66931;-61
2023/12/20 05:52:39;;;;;;;15.00;10.40;;;;;;;5.40;100.00;100404.61;109342;1253;71413;-61
2023/12/20 05:55:06;;;;;;;14.30;10.50;;;;;;;5.43;100.00;100406.55;109370;1253;60575;-62
2023/12/20 05:57:34;;;;;;;13.80;9.00;;;;;;;5.45;100.00;100405.05;109282;1253;59084;-60
2023/12/20 06:00:03;;;;;;;14.30;9.60;;;;;;;5.47;100.00;100408.85;109381;1252;74753;-60
2023/12/20 06:02:38;;;;;;;17.80;10.60;;;;;;;5.48;100.00;100407.66;109345;1252;67351;-60
2023/12/20 06:05:06;;;;;;;15.30;9.30;;;;;;;5.50;100.00;100414.67;109324;1252;71743;-61
2023/12/20 06:07:34;;;;;;;14.10;9.90;;;;;;;5.52;100.00;100414.82;109264;1253;61942;-61
2023/12/20 06:10:02;;;;;;;12.90;9.90;;;;;;;5.56;100.00;100411.59;109317;1253;60105;-61
2023/12/20 06:12:32;;;;;;;14.00;9.80;;;;;;;5.57;100.00;100411.29;109346;1253;75164;-60
2023/12/20 06:14:59;;;;;;;15.30;9.70;;;;;;;5.60;100.00;100412.66;109333;1253;67054;-60
2023/12/20 06:17:27;;;;;;;17.20;10.90;;;;;;;5.63;100.00;100415.05;109361;1252;72727;-62
2023/12/20 06:19:54;;;;;;;15.40;10.30;;;;;;;5.65;100.00;100418.52;109247;1253;62134;-61
2023/12/20 06:22:22;;;;;;;16.00;10.50;;;;;;;5.66;100.00;100416.52;109330;1253;58917;-61
2023/12/20 06:24:50;;;;;;;14.60;9.80;;;;;;;5.66;100.00;100419.94;109314;1253;73448;-60
2023/12/20 06:27:17;;;;;;;14.80;10.30;;;;;;;5.66;100.00;100425.78;109322;1253;66056;-61
2023/12/20 06:29:45;;;;;;;13.60;9.30;;;;;;;5.64;100.00;100425.09;109347;1254;71457;-62
2023/12/20 06:32:13;;;;;;;16.40;10.50;;;;;;;5.65;100.00;100421.28;109342;1253;61672;-62
2023/12/20 06:34:40;;;;;;;15.50;10.50;;;;;;;5.64;100.00;100424.73;109376;1252;60291;-60
2023/12/20 06:37:08;;;;;;;14.40;10.30;;;;;;;5.66;100.00;100426.56;109367;1252;74034;-61
2023/12/20 06:39:36;;;;;;;18.40;11.10;;;;;;;5.66;100.00;100428.17;109325;1253;66950;-62
2023/12/20 06:42:03;;;;;;;16.00;10.40;;;;;;;5.65;100.00;100422.62;109335;1252;72880;-61
2023/12/20 06:44:31;;;;;;;13.30;9.70;;;;;;;5.66;100.00;100422.17;109297;1252;61926;-60
2023/12/20 06:46:59;;;;;;;16.40;11.60;;;;;;;5.66;100.00;100418.71;109397;1252;60107;-62
2023/12/20 06:49:27;;;;;;;16.60;11.10;;;;;;;5.66;100.00;100412.34;109365;1253;73479;-61
2023/12/20 06:51:54;;;;;;;16.90;10.70;;;;;;;5.67;100.00;100410.49;109323;1252;67211;-62
2023/12/20 06:54:22;;;;;;;15.40;10.60;;;;;;;5.68;100.00;100408.34;109368;1253;72706;-60
2023/12/20 06:56:50;;;;;;;14.70;10.40;;;;;;;5.68;100.00;100411.47;109352;1255;61753;-60
2023/12/20 06:59:17;;;;;;;18.90;12.30;;;;;;;5.72;100.00;100410.09;109336;1253;60183;-61
2023/12/20 07:01:48;;;;;;;14.80;10.70;;;;;;;5.75;100.00;100406.69;109424;1252;73782;-61
2023/12/20 07:04:20;;;;;;;17.50;12.40;;;;;;;5.77;100.00;100410.95;109348;1253;66146;-61
2023/12/20 07:06:51;;;;;;;15.40;11.60;;;;;;;5.80;100.00;100411.27;109311;1253;70505;-61
2023/12/20 07:09:19;;;;;;;18.00;10.70;;;;;;;5.83;100.00;100408.23;109350;1253;61958;-61
2023/12/20 07:11:46;;;;;;;14.00;10.40;;;;;;;5.89;100.00;100406.88;109324;1253;60117;-62
2023/12/20 07:14:14;;;;;;;14.80;9.80;;;;;;;5.94;100.00;100401.20;109302;1253;75163;-61
2023/12/20 07:16:42;;;;;;;13.60;9.80;;;;;;;6.02;100.00;100399.87;109398;1252;67055;-61
2023/12/20 07:19:09;;;;;;;17.20;12.10;;;;;;;6.12;100.00;100397.41;109337;1253;72470;-61
2023/12/20 07:21:37;;;;;;;14.30;10.20;;;;;;;6.22;100.00;100391.77;109318;1253;62084;-61
2023/12/20 07:24:05;;;;;;;14.90;11.30;;;;;;;6.32;100.00;100380.90;109322;1256;60157;-63
2023/12/20 07:26:33;;;;;;;15.20;11.60;;;;;;;6.39;100.00;100389.48;109337;1253;73418;-61
2023/12/20 07:29:01;;;;;;;14.40;10.40;;;;;;;6.49;100.00;100395.60;109350;1253;67091;-61
2023/12/20 07:31:29;;;;;;;14.10;10.20;;;;;;;6.58;100.00;100396.76;109333;1253;71453;-61
2023/12/20 07:33:56;;;;;;;13.30;10.20;;;;;;;6.66;100.00;100400.04;109351;1253;60443;-61
2023/12/20 07:36:24;;;;;;;13.00;9.20;;;;;;;6.71;100.00;100398.23;109346;1252;62164;-60
2023/12/20 07:38:52;;;;;;;14.50;10.50;;;;;;;6.77;100.00;100401.55;109264;1252;74570;-61
2023/12/20 07:41:21;;;;;;;12.80;9.40;;;;;;;6.87;100.00;100390.12;109449;1252;66073;-61
2023/12/20 07:43:49;;;;;;;13.10;10.00;;;;;;;6.97;100.00;100389.39;109417;1252;72779;-61
2023/12/20 07:46:18;;;;;;;14.90;9.70;;;;;;;7.02;100.00;100380.77;109157;1253;60504;-62
2023/12/20 07:48:46;;;;;;;14.20;10.70;;;;;;;7.09;100.00;100375.45;109341;1254;62047;-61
2023/12/20 07:51:14;;;;;;;14.50;10.60;;;;;;;7.14;100.00;100377.79;109349;1253;74766;-60
2023/12/20 07:53:41;;;;;;;14.20;10.00;;;;;;;7.16;100.00;100369.86;109093;1253;366825;-59
2023/12/20 07:56:16;;;;;;;14.10;9.80;;;;;;;7.15;100.00;100369.46;109378;1252;73379;-60
2023/12/20 07:58:44;;;;;;;14.10;10.30;;;;;;;7.08;100.00;100369.05;109188;1253;61152;-60
2023/12/20 08:01:20;;;;;;;14.40;10.00;;;;;;;7.06;100.00;100358.55;109339;1253;60097;-63
2023/12/20 08:03:50;;;;;;;14.40;9.60;;;;;;;7.06;100.00;100358.06;109366;1253;74726;-60
2023/12/20 08:06:18;;;;;;;14.10;9.80;;;;;;;7.05;100.00;100349.28;109227;1253;66975;-60
2023/12/20 08:08:46;;;;;;;12.90;9.00;;;;;;;7.07;100.00;100347.70;109360;1253;73354;-60
2023/12/20 08:11:25;;;;;;;12.30;8.70;;;;;;;7.10;100.00;100345.70;109251;1253;61892;-60
2023/12/20 08:13:52;;;;;;;14.30;9.90;;;;;;;7.16;100.00;100341.33;109373;1253;62222;-59
2023/12/20 08:16:20;;;;;;;13.10;9.00;;;;;;;7.16;100.00;100340.68;109289;1252;74639;-60
2023/12/20 08:18:47;;;;;;;13.70;9.40;;;;;;;7.16;100.00;100339.62;109394;1253;67000;-59
2023/12/20 08:21:15;;;;;;;12.70;9.00;;;;;;;7.19;100.00;100333.92;109338;1252;71118;-60
2023/12/20 08:23:43;;;;;;;12.60;9.50;;;;;;;7.23;100.00;100332.66;109351;1253;60445;-59
2023/12/20 08:26:10;;;;;;;12.80;9.20;;;;;;;7.18;100.00;100334.20;109408;1253;59418;-60
2023/12/20 08:28:38;;;;;;;13.00;9.20;;;;;;;7.14;100.00;100328.73;109333;1252;74724;-60
2023/12/20 08:31:06;;;;;;;13.00;9.90;;;;;;;7.14;100.00;100328.38;109258;1252;65760;-59
2023/12/20 08:33:33;;;;;;;14.10;10.20;;;;;;;7.10;100.00;100327.79;109364;1253;72726;-59
2023/12/20 08:36:05;;;;;;;14.30;9.70;;;;;;;7.07;100.00;100326.08;109355;1253;61865;-59
2023/12/20 08:38:32;;;;;;;12.80;9.20;;;;;;;7.08;100.00;100325.70;109342;1253;60652;-59
2023/12/20 08:41:01;;;;;;;12.80;9.70;;;;;;;7.06;100.00;100328.52;109384;1252;74736;-59
2023/12/20 08:43:28;;;;;;;12.80;9.50;;;;;;;7.07;100.00;100328.45;109413;1252;66907;-59
2023/12/20 08:45:56;;;;;;;14.80;10.60;;;;;;;7.07;100.00;100329.14;109405;1251;73637;-60
2023/12/20 08:48:24;;;;;;;13.50;10.10;;;;;;;7.12;100.00;100327.93;109303;1253;61509;-59
2023/12/20 08:50:52;;;;;;;12.60;9.10;;;;;;;7.16;100.00;100325.07;109371;1252;59494;-59
2023/12/20 08:53:20;;;;;;;13.90;9.60;;;;;;;7.19;100.00;100319.73;109417;1253;74479;-59
2023/12/20 08:55:47;;;;;;;14.50;9.30;;;;;;;7.18;100.00;100321.92;109418;1253;66692;-59
2023/12/20 08:58:15;;;;;;;12.20;8.60;;;;;;;7.19;100.00;100314.02;109327;1252;72868;-59
2023/12/20 09:00:43;;;;;;;13.90;10.00;;;;;;;7.20;100.00;100312.51;109371;1257;61813;-60
2023/12/20 09:03:11;;;;;;;14.10;9.60;;;;;;;7.24;100.00;100310.90;109317;1253;61965;-60
2023/12/20 09:05:40;;;;;;;13.10;9.60;;;;;;;7.24;100.00;100304.84;109369;1253;75611;-59
2023/12/20 09:08:09;;;;;;;11.30;9.10;;;;;;;7.26;100.00;100308.30;109342;1253;66956;-60
2023/12/20 09:10:37;;;;;;;13.90;10.30;;;;;;;7.28;100.00;100306.20;109241;1253;71135;-60
2023/12/20 09:13:05;;;;;;;12.70;8.50;;;;;;;7.29;100.00;100301.37;109349;1253;62178;-59
2023/12/20 09:15:34;;;;;;;12.90;9.50;;;;;;;7.29;100.00;100305.48;109330;1253;59103;-59
2023/12/20 09:18:03;;;;;;;11.90;8.90;;;;;;;7.29;100.00;100301.08;109355;1253;73707;-61
2023/12/20 09:20:32;;;;;;;12.80;9.50;;;;;;;7.29;100.00;100289.51;109374;1252;65974;-60
2023/12/20 09:23:00;;;;;;;12.50;9.50;;;;;;;7.29;100.00;100291.52;109380;1253;72351;-60
2023/12/20 09:25:29;;;;;;;13.30;9.10;;;;;;;7.32;100.00;100287.98;109398;1252;62753;-60
2023/12/20 09:27:57;;;;;;;13.00;9.20;;;;;;;7.35;100.00;100282.94;109385;1253;58929;-60
2023/12/20 09:30:25;;;;;;;12.70;9.20;;;;;;;7.40;100.00;100286.60;109350;1253;76237;-59
2023/12/20 09:32:55;;;;;;;12.90;9.80;;;;;;;7.44;100.00;100273.86;109380;1252;67011;-60
2023/12/20 09:35:23;;;;;;;13.10;9.80;;;;;;;7.46;100.00;100270.42;109416;1253;70691;-59
2023/12/20 09:37:51;;;;;;;13.70;9.50;;;;;;;7.47;100.00;100273.02;109389;1253;62022;-59
2023/12/20 09:40:19;;;;;;;14.10;9.40;;;;;;;7.50;100.00;100265.30;109339;1253;63419;-60
2023/12/20 09:43:02;;;;;;;10.90;8.60;;;;;;;7.53;100.00;100257.02;109403;1253;74780;-59
2023/12/20 09:45:30;;;;;;;14.60;9.40;;;;;;;7.57;100.00;100255.18;109392;1252;69184;-59
2023/12/20 09:47:58;;;;;;;14.30;9.00;;;;;;;7.63;100.00;100248.01;109327;1252;74725;-59
2023/12/20 09:50:26;;;;;;;12.30;9.50;;;;;;;7.67;100.00;100255.36;109197;1253;61723;-59
2023/12/20 09:52:56;;;;;;;13.00;9.50;;;;;;;7.67;100.00;100254.65;109345;1253;61271;-59
2023/12/20 09:55:23;;;;;;;13.30;9.40;;;;;;;7.66;100.00;100255.50;109387;1252;73600;-59
2023/12/20 09:57:52;;;;;;;11.70;8.20;;;;;;;7.66;100.00;100251.03;109235;1253;69092;-59
2023/12/20 10:00:20;;;;;;;12.40;8.20;;;;;;;7.64;100.00;100252.75;109388;1252;74737;-59
2023/12/20 10:02:58;;;;;;;11.00;8.60;;;;;;;7.61;100.00;100253.23;109348;1253;60931;-59
2023/12/20 10:05:31;;;;;;;11.50;7.80;;;;;;;7.59;100.00;100250.07;109246;1253;61810;-59
2023/12/20 10:08:00;;;;;;;10.20;7.90;;;;;;;7.55;100.00;100255.02;109381;1253;77490;-59
2023/12/20 10:10:29;;;;;;;10.60;8.70;;;;;;;7.53;100.00;100258.52;109372;1253;67742;-59
2023/12/20 10:13:12;;;;;;;9.80;8.00;;;;;;;7.52;100.00;100261.05;109361;1253;73658;-60
2023/12/20 10:15:40;;;;;;;10.00;7.70;;;;;;;7.52;100.00;100264.87;109338;1253;63732;-59
2023/12/20 10:18:12;;;;;;;9.00;7.30;;;;;;;7.55;100.00;100261.44;109445;1252;60125;-58
2023/12/20 10:20:40;;;;;;;10.50;8.00;;;;;;;7.58;100.00;100257.00;109434;1253;73442;-59
2023/12/20 10:23:10;;;;;;;9.40;7.40;;;;;;;7.65;100.00;100261.14;109411;1253;67895;-61
2023/12/20 10:25:38;;;;;;;11.00;7.80;;;;;;;7.67;100.00;100255.92;109426;1253;71262;-58
2023/12/20 10:28:13;;;;;;;10.00;8.00;;;;;;;7.67;100.00;100249.54;109183;1253;60470;-58
2023/12/20 10:30:41;;;;;;;11.00;7.90;;;;;;;7.67;100.00;100243.08;109395;1253;59197;-59
2023/12/20 10:33:10;;;;;;;12.30;9.20;;;;;;;7.68;100.00;100242.10;109341;1252;74734;-61
2023/12/20 10:35:39;;;;;;;11.20;8.30;;;;;;;7.70;100.00;100243.44;109418;1252;67705;-58
2023/12/20 10:38:15;;;;;;;10.00;7.20;;;;;;;7.71;100.00;100248.08;109390;1252;75090;-58
2023/12/20 10:40:43;;;;;;;8.60;6.80;;;;;;;7.65;100.00;100238.14;109358;1253;61765;-58
2023/12/20 10:43:11;;;;;;;9.90;6.90;;;;;;;7.61;100.00;100241.48;109282;1253;59505;-59
2023/12/20 10:45:39;;;;;;;9.50;7.10;;;;;;;7.61;100.00;100242.34;109214;1252;73797;-58
2023/12/20 10:48:07;;;;;;;9.50;7.00;;;;;;;7.62;100.00;100245.59;109416;1253;68043;-58
2023/12/20 10:50:36;;;;;;;9.50;7.00;;;;;;;7.61;100.00;100249.11;109410;1253;71806;-61
2023/12/20 10:53:03;;;;;;;9.40;7.40;;;;;;;7.60;100.00;100243.66;109313;1252;62429;-60
2023/12/20 10:55:31;;;;;;;11.00;7.40;;;;;;;7.60;100.00;100242.50;109180;1253;63083;-60
2023/12/20 10:58:06;;;;;;;10.20;7.40;;;;;;;7.60;100.00;100241.23;109382;1252;77388;-60
2023/12/20 11:00:40;;;;;;;11.30;8.50;;;;;;;7.60;100.00;100244.58;109355;1252;69398;-63
2023/12/20 11:03:09;;;;;;;12.10;7.80;;;;;;;7.60;100.00;100237.58;109452;1253;74760;-60
2023/12/20 11:05:50;;;;;;;11.90;8.40;;;;;;;7.60;100.00;100236.23;109396;1253;62770;-60
2023/12/20 11:08:37;;;;;;;15.00;10.50;;;;;;;7.60;100.00;100237.84;109106;1252;61023;-61
2023/12/20 11:11:32;;;;;;;21.90;14.60;;;;;;;7.61;100.00;100241.30;109416;1252;74697;-60
2023/12/20 11:14:14;;;;;;;18.20;12.10;;;;;;;7.67;100.00;100239.98;109346;1252;70084;-61
2023/12/20 11:16:42;;;;;;;14.40;10.30;;;;;;;7.72;100.00;100239.49;109329;1253;71557;-60